Dione Leader — 3ETU9 — position and weather

sailwx.info

Track history (hours):
 
Tides and Currents Weather Stations Pressure Air Temp Water Temp Dewpoint Dewpoint Depression Visibility Wind Speed Wind Dir Waves Ship Positions

Dione Leader

Last reported at 2018-May-28 02:55 UTC. Time now 2018-May-28 03:10 UTC.
Position N 48°21' W 123°20'.

Length 199 m; draft 8.9 m.

Type: Cargo ship. MMSI: 352023000.

Date/timePositionNaut miles runAvg speedWind from/ knotsBaromVisibWave heightAir tempDewpointWater temp
2018-May-28 02:55N 48°21' W 123°20'0 0.0
2018-May-28 02:25N 48°21' W 123°20'0 0.1
2018-May-28 01:55N 48°21' W 123°20'0 0.1
2018-May-28 01:28N 48°21' W 123°20'0 0.2
2018-May-28 00:58N 48°21' W 123°20'0 0.1
2018-May-28 00:28N 48°21' W 123°20'0 0.1
2018-May-27 23:58N 48°21' W 123°20'0 0.0
2018-May-27 23:28N 48°21' W 123°20'0 0.0
2018-May-27 22:58N 48°21' W 123°20'0 0.0
2018-May-27 22:22N 48°21' W 123°20'0 0.1
2018-May-27 21:52N 48°21' W 123°20'0 0.2
2018-May-27 21:28N 48°21' W 123°20'0 0.0
2018-May-27 20:55N 48°21' W 123°20'0 0.1
2018-May-27 20:22N 48°21' W 123°20'0 0.1
2018-May-27 19:58N 48°21' W 123°20'0 0.3
2018-May-27 19:30N 48°21' W 123°21'0 0.8
2018-May-27 19:00N 48°21' W 123°20'3 5.4
2018-May-27 18:30N 48°18' W 123°21'610.1
2018-May-27 17:56N 48°12' W 123°22'4 7.2
2018-May-27 17:19N 48°09' W 123°17'619.1
2018-May-27 16:59N 48°12' W 123°09'918.6
2018-May-27 16:30N 48°12' W 122°55'1619.1
2018-May-27 15:39N 48°01' W 122°37'420.6
2018-May-27 15:25N 47°57' W 122°33'818.3
2018-May-27 15:00N 47°51' W 122°27'918.2
2018-May-27 14:30N 47°42' W 122°27'918.3
2018-May-27 14:01N 47°33' W 122°26'918.0
2018-May-27 13:30N 47°24' W 122°22'714.1
2018-May-27 13:00N 47°18' W 122°27'3 6.4
2018-May-27 12:30N 47°16' W 122°23'0 0.0
2018-May-26 21:52N 47°15' W 122°23'0 0.0
2018-May-26 20:44N 47°15' W 122°23'0 0.0
2018-May-26 20:22N 47°15' W 122°23'0 0.0
2018-May-26 12:57N 47°16' W 122°23'1 2.2
2018-May-26 12:30N 47°16' W 122°24'2 3.7
2018-May-26 12:00N 47°17' W 122°26'3 5.7
2018-May-26 11:30N 47°20' W 122°27'713.4
2018-May-26 11:00N 47°26' W 122°24'918.3
2018-May-26 10:30N 47°35' W 122°27'918.2
2018-May-26 10:00N 47°44' W 122°27'918.0
2018-May-26 09:30N 47°53' W 122°29'1018.3
2018-May-26 08:58N 48°01' W 122°38'5214.2
2018-May-26 05:17N 48°14' W 123°54'415.2
2018-May-26 05:00N 48°15' W 124°00'714.9
2018-May-26 04:30N 48°18' W 124°10'714.6
2018-May-26 04:00N 48°21' W 124°20'714.5
2018-May-26 03:30N 48°24' W 124°30'714.4
2018-May-26 03:00N 48°27' W 124°40'714.0
2018-May-26 02:30N 48°29' W 124°50'713.9
2018-May-26 02:00N 48°28' W 125°01'714.3
2018-May-26 01:30N 48°28' W 125°12'714.0
2018-May-26 00:59N 48°26' W 125°22'714.5
2018-May-26 00:30N 48°23' W 125°31'5 9.5
2018-May-26 00:00N 48°21' W 125°38'611.6
2018-May-25 23:30N 48°19' W 125°46'714.1
2018-May-25 23:00N 48°17' W 125°56'  
Track history (hours):
 
Tides and Currents Weather Stations Pressure Air Temp Water Temp Dewpoint Dewpoint Depression Visibility Wind Speed Wind Dir Waves Ship Positions

Dione Leader

Last reported at 2018-May-28 02:55 UTC. Time now 2018-May-28 03:10 UTC.
Position N 48°21' W 123°20'.

Length 199 m; draft 8.9 m.

Type: Cargo ship. MMSI: 352023000.

Date/timePositionNaut miles runAvg speedWind from/ knotsBaromVisibWave heightAir tempDewpointWater temp
2018-May-28 02:55N 48°21' W 123°20'0 0.0
2018-May-28 02:25N 48°21' W 123°20'0 0.1
2018-May-28 01:55N 48°21' W 123°20'0 0.1
2018-May-28 01:28N 48°21' W 123°20'0 0.2
2018-May-28 00:58N 48°21' W 123°20'0 0.1
2018-May-28 00:28N 48°21' W 123°20'0 0.1
2018-May-27 23:58N 48°21' W 123°20'0 0.0
2018-May-27 23:28N 48°21' W 123°20'0 0.0
2018-May-27 22:58N 48°21' W 123°20'0 0.0
2018-May-27 22:22N 48°21' W 123°20'0 0.1
2018-May-27 21:52N 48°21' W 123°20'0 0.2
2018-May-27 21:28N 48°21' W 123°20'0 0.0
2018-May-27 20:55N 48°21' W 123°20'0 0.1
2018-May-27 20:22N 48°21' W 123°20'0 0.1
2018-May-27 19:58N 48°21' W 123°20'0 0.3
2018-May-27 19:30N 48°21' W 123°21'0 0.8
2018-May-27 19:00N 48°21' W 123°20'3 5.4
2018-May-27 18:30N 48°18' W 123°21'610.1
2018-May-27 17:56N 48°12' W 123°22'4 7.2
2018-May-27 17:19N 48°09' W 123°17'619.1
2018-May-27 16:59N 48°12' W 123°09'918.6
2018-May-27 16:30N 48°12' W 122°55'1619.1
2018-May-27 15:39N 48°01' W 122°37'420.6
2018-May-27 15:25N 47°57' W 122°33'818.3
2018-May-27 15:00N 47°51' W 122°27'918.2
2018-May-27 14:30N 47°42' W 122°27'918.3
2018-May-27 14:01N 47°33' W 122°26'918.0
2018-May-27 13:30N 47°24' W 122°22'714.1
2018-May-27 13:00N 47°18' W 122°27'3 6.4
2018-May-27 12:30N 47°16' W 122°23'0 0.0
2018-May-26 21:52N 47°15' W 122°23'0 0.0
2018-May-26 20:44N 47°15' W 122°23'0 0.0
2018-May-26 20:22N 47°15' W 122°23'0 0.0
2018-May-26 12:57N 47°16' W 122°23'1 2.2
2018-May-26 12:30N 47°16' W 122°24'2 3.7
2018-May-26 12:00N 47°17' W 122°26'3 5.7
2018-May-26 11:30N 47°20' W 122°27'713.4
2018-May-26 11:00N 47°26' W 122°24'918.3
2018-May-26 10:30N 47°35' W 122°27'918.2
2018-May-26 10:00N 47°44' W 122°27'918.0
2018-May-26 09:30N 47°53' W 122°29'1018.3
2018-May-26 08:58N 48°01' W 122°38'5214.2
2018-May-26 05:17N 48°14' W 123°54'415.2
2018-May-26 05:00N 48°15' W 124°00'714.9
2018-May-26 04:30N 48°18' W 124°10'714.6
2018-May-26 04:00N 48°21' W 124°20'714.5
2018-May-26 03:30N 48°24' W 124°30'714.4
2018-May-26 03:00N 48°27' W 124°40'714.0
2018-May-26 02:30N 48°29' W 124°50'713.9
2018-May-26 02:00N 48°28' W 125°01'714.3
2018-May-26 01:30N 48°28' W 125°12'714.0
2018-May-26 00:59N 48°26' W 125°22'714.5
2018-May-26 00:30N 48°23' W 125°31'5 9.5
2018-May-26 00:00N 48°21' W 125°38'611.6
2018-May-25 23:30N 48°19' W 125°46'714.1
2018-May-25 23:00N 48°17' W 125°56'  

Dump ship's entire track history